sensor_id;sensor_type;location;lat;lon;timestamp;temperature;humidity
25214;DHT22;13160;51.834;4.706;2023-09-07T00:00:50;20.40;99.90
25214;DHT22;13160;51.834;4.706;2023-09-07T00:03:18;20.40;99.90
25214;DHT22;13160;51.834;4.706;2023-09-07T00:05:48;20.40;99.90
25214;DHT22;13160;51.834;4.706;2023-09-07T00:08:16;20.40;99.90
25214;DHT22;13160;51.834;4.706;2023-09-07T00:10:44;20.40;99.90
25214;DHT22;13160;51.834;4.706;2023-09-07T00:13:13;20.30;99.90
25214;DHT22;13160;51.834;4.706;2023-09-07T00:15:41;20.30;99.90
25214;DHT22;13160;51.834;4.706;2023-09-07T00:18:09;20.30;99.90
25214;DHT22;13160;51.834;4.706;2023-09-07T00:20:38;20.30;99.90
25214;DHT22;13160;51.834;4.706;2023-09-07T00:23:08;20.30;99.90
25214;DHT22;13160;51.834;4.706;2023-09-07T00:25:37;20.30;99.90
25214;DHT22;13160;51.834;4.706;2023-09-07T00:28:05;20.30;99.90
25214;DHT22;13160;51.834;4.706;2023-09-07T00:30:33;20.30;99.90
25214;DHT22;13160;51.834;4.706;2023-09-07T00:33:02;20.30;99.90
25214;DHT22;13160;51.834;4.706;2023-09-07T00:35:30;20.30;99.90
25214;DHT22;13160;51.834;4.706;2023-09-07T00:37:59;20.30;99.90
25214;DHT22;13160;51.834;4.706;2023-09-07T00:40:29;20.30;99.90
25214;DHT22;13160;51.834;4.706;2023-09-07T00:42:58;20.30;99.90
25214;DHT22;13160;51.834;4.706;2023-09-07T00:45:27;20.20;99.90
25214;DHT22;13160;51.834;4.706;2023-09-07T00:47:55;20.30;99.90
25214;DHT22;13160;51.834;4.706;2023-09-07T00:50:24;20.30;99.90
25214;DHT22;13160;51.834;4.706;2023-09-07T00:52:52;20.20;99.90
25214;DHT22;13160;51.834;4.706;2023-09-07T00:55:21;20.20;99.90
25214;DHT22;13160;51.834;4.706;2023-09-07T00:57:51;20.20;99.90
25214;DHT22;13160;51.834;4.706;2023-09-07T01:00:19;20.20;99.90
25214;DHT22;13160;51.834;4.706;2023-09-07T01:02:48;20.10;99.90
25214;DHT22;13160;51.834;4.706;2023-09-07T01:05:17;20.20;99.90
25214;DHT22;13160;51.834;4.706;2023-09-07T01:07:50;20.10;99.90
25214;DHT22;13160;51.834;4.706;2023-09-07T01:10:23;20.10;99.90
25214;DHT22;13160;51.834;4.706;2023-09-07T01:12:53;20.10;99.90
25214;DHT22;13160;51.834;4.706;2023-09-07T01:15:21;20.10;99.90
25214;DHT22;13160;51.834;4.706;2023-09-07T01:17:50;20.10;99.90
25214;DHT22;13160;51.834;4.706;2023-09-07T01:20:20;20.10;99.90
25214;DHT22;13160;51.834;4.706;2023-09-07T01:22:50;20.10;99.90
25214;DHT22;13160;51.834;4.706;2023-09-07T01:25:19;20.00;99.90
25214;DHT22;13160;51.834;4.706;2023-09-07T01:27:49;20.00;99.90
25214;DHT22;13160;51.834;4.706;2023-09-07T01:30:18;20.00;99.90
25214;DHT22;13160;51.834;4.706;2023-09-07T01:32:46;20.00;99.90
25214;DHT22;13160;51.834;4.706;2023-09-07T01:35:16;20.00;99.90
25214;DHT22;13160;51.834;4.706;2023-09-07T01:37:50;20.00;99.90
25214;DHT22;13160;51.834;4.706;2023-09-07T01:40:18;19.90;99.90
25214;DHT22;13160;51.834;4.706;2023-09-07T01:42:46;19.80;99.90
25214;DHT22;13160;51.834;4.706;2023-09-07T01:45:15;19.80;99.90
25214;DHT22;13160;51.834;4.706;2023-09-07T01:47:43;19.80;99.90
25214;DHT22;13160;51.834;4.706;2023-09-07T01:50:12;19.80;99.90
25214;DHT22;13160;51.834;4.706;2023-09-07T01:52:41;19.80;99.90
25214;DHT22;13160;51.834;4.706;2023-09-07T01:55:11;19.70;99.90
25214;DHT22;13160;51.834;4.706;2023-09-07T01:57:39;19.70;99.90
25214;DHT22;13160;51.834;4.706;2023-09-07T02:00:08;19.60;99.90
25214;DHT22;13160;51.834;4.706;2023-09-07T02:02:38;19.60;99.90
25214;DHT22;13160;51.834;4.706;2023-09-07T02:05:06;19.60;99.90
25214;DHT22;13160;51.834;4.706;2023-09-07T02:07:36;19.50;99.90
25214;DHT22;13160;51.834;4.706;2023-09-07T02:10:05;19.50;99.90
25214;DHT22;13160;51.834;4.706;2023-09-07T02:12:35;19.40;99.90
25214;DHT22;13160;51.834;4.706;2023-09-07T02:15:05;19.40;99.90
25214;DHT22;13160;51.834;4.706;2023-09-07T02:17:34;19.30;99.90
25214;DHT22;13160;51.834;4.706;2023-09-07T02:20:03;19.20;99.90
25214;DHT22;13160;51.834;4.706;2023-09-07T02:22:37;19.20;99.90
25214;DHT22;13160;51.834;4.706;2023-09-07T02:25:06;19.10;99.90
25214;DHT22;13160;51.834;4.706;2023-09-07T02:27:37;19.10;99.90
25214;DHT22;13160;51.834;4.706;2023-09-07T02:30:07;19.00;99.90
25214;DHT22;13160;51.834;4.706;2023-09-07T02:32:36;19.00;99.90
25214;DHT22;13160;51.834;4.706;2023-09-07T02:35:05;18.90;99.90
25214;DHT22;13160;51.834;4.706;2023-09-07T02:37:35;18.90;99.90
25214;DHT22;13160;51.834;4.706;2023-09-07T02:40:05;18.80;99.90
25214;DHT22;13160;51.834;4.706;2023-09-07T02:42:37;18.80;99.90
25214;DHT22;13160;51.834;4.706;2023-09-07T02:45:07;18.70;99.90
25214;DHT22;13160;51.834;4.706;2023-09-07T02:47:38;18.70;99.90
25214;DHT22;13160;51.834;4.706;2023-09-07T02:50:07;18.70;99.90
25214;DHT22;13160;51.834;4.706;2023-09-07T02:52:36;18.70;99.90
25214;DHT22;13160;51.834;4.706;2023-09-07T02:55:05;18.60;99.90
25214;DHT22;13160;51.834;4.706;2023-09-07T02:57:35;18.60;99.90
25214;DHT22;13160;51.834;4.706;2023-09-07T03:00:06;18.60;99.90
25214;DHT22;13160;51.834;4.706;2023-09-07T03:02:37;18.60;99.90
25214;DHT22;13160;51.834;4.706;2023-09-07T03:05:06;18.50;99.90
25214;DHT22;13160;51.834;4.706;2023-09-07T03:07:35;18.50;99.90
25214;DHT22;13160;51.834;4.706;2023-09-07T03:10:03;18.50;99.90
25214;DHT22;13160;51.834;4.706;2023-09-07T03:12:33;18.40;99.90
25214;DHT22;13160;51.834;4.706;2023-09-07T03:15:03;18.40;99.90
25214;DHT22;13160;51.834;4.706;2023-09-07T03:17:33;18.30;99.90
25214;DHT22;13160;51.834;4.706;2023-09-07T03:20:01;18.20;99.90
25214;DHT22;13160;51.834;4.706;2023-09-07T03:22:41;18.20;99.90
25214;DHT22;13160;51.834;4.706;2023-09-07T03:25:09;18.20;99.90
25214;DHT22;13160;51.834;4.706;2023-09-07T03:27:38;18.10;99.90
25214;DHT22;13160;51.834;4.706;2023-09-07T03:30:09;18.20;99.90
25214;DHT22;13160;51.834;4.706;2023-09-07T03:32:37;18.10;99.90
25214;DHT22;13160;51.834;4.706;2023-09-07T03:35:07;18.00;99.90
25214;DHT22;13160;51.834;4.706;2023-09-07T03:37:36;18.00;99.90
25214;DHT22;13160;51.834;4.706;2023-09-07T03:40:06;18.00;99.90
25214;DHT22;13160;51.834;4.706;2023-09-07T03:42:36;17.90;99.90
25214;DHT22;13160;51.834;4.706;2023-09-07T03:45:08;17.90;99.90
25214;DHT22;13160;51.834;4.706;2023-09-07T03:47:37;17.90;99.90
25214;DHT22;13160;51.834;4.706;2023-09-07T03:50:06;17.90;99.90
25214;DHT22;13160;51.834;4.706;2023-09-07T03:52:35;17.90;99.90
25214;DHT22;13160;51.834;4.706;2023-09-07T03:55:04;17.80;99.90
25214;DHT22;13160;51.834;4.706;2023-09-07T03:57:33;17.80;99.90
25214;DHT22;13160;51.834;4.706;2023-09-07T04:00:01;17.80;99.90
25214;DHT22;13160;51.834;4.706;2023-09-07T04:02:36;17.80;99.90
25214;DHT22;13160;51.834;4.706;2023-09-07T04:05:05;17.80;99.90
25214;DHT22;13160;51.834;4.706;2023-09-07T04:07:34;17.80;99.90
25214;DHT22;13160;51.834;4.706;2023-09-07T04:10:03;17.80;99.90
25214;DHT22;13160;51.834;4.706;2023-09-07T04:12:31;17.80;99.90
25214;DHT22;13160;51.834;4.706;2023-09-07T04:15:01;17.80;99.90
25214;DHT22;13160;51.834;4.706;2023-09-07T04:17:30;17.80;99.90
25214;DHT22;13160;51.834;4.706;2023-09-07T04:20:09;17.80;99.90
25214;DHT22;13160;51.834;4.706;2023-09-07T04:22:39;17.80;99.90
25214;DHT22;13160;51.834;4.706;2023-09-07T04:25:08;17.80;99.90
25214;DHT22;13160;51.834;4.706;2023-09-07T04:27:36;17.80;99.90
25214;DHT22;13160;51.834;4.706;2023-09-07T04:30:06;17.80;99.90
25214;DHT22;13160;51.834;4.706;2023-09-07T04:32:35;17.80;99.90
25214;DHT22;13160;51.834;4.706;2023-09-07T04:35:11;17.80;99.90
25214;DHT22;13160;51.834;4.706;2023-09-07T04:37:47;17.80;99.90
25214;DHT22;13160;51.834;4.706;2023-09-07T04:40:17;17.80;99.90
25214;DHT22;13160;51.834;4.706;2023-09-07T04:42:46;17.70;99.90
25214;DHT22;13160;51.834;4.706;2023-09-07T04:45:15;17.70;99.90
25214;DHT22;13160;51.834;4.706;2023-09-07T04:47:44;17.70;99.90
25214;DHT22;13160;51.834;4.706;2023-09-07T04:50:14;17.70;99.90
25214;DHT22;13160;51.834;4.706;2023-09-07T04:52:42;17.70;99.90
25214;DHT22;13160;51.834;4.706;2023-09-07T04:55:11;17.60;99.90
25214;DHT22;13160;51.834;4.706;2023-09-07T04:57:39;17.60;99.90
25214;DHT22;13160;51.834;4.706;2023-09-07T05:00:08;17.60;99.90
25214;DHT22;13160;51.834;4.706;2023-09-07T05:02:37;17.60;99.90
25214;DHT22;13160;51.834;4.706;2023-09-07T05:05:09;17.60;99.90
25214;DHT22;13160;51.834;4.706;2023-09-07T05:07:39;17.50;99.90
25214;DHT22;13160;51.834;4.706;2023-09-07T05:10:07;17.60;99.90
25214;DHT22;13160;51.834;4.706;2023-09-07T05:12:39;17.50;99.90
25214;DHT22;13160;51.834;4.706;2023-09-07T05:15:08;17.50;99.90
25214;DHT22;13160;51.834;4.706;2023-09-07T05:17:36;17.50;99.90
25214;DHT22;13160;51.834;4.706;2023-09-07T05:20:07;17.50;99.90
25214;DHT22;13160;51.834;4.706;2023-09-07T05:22:39;17.50;99.90
25214;DHT22;13160;51.834;4.706;2023-09-07T05:25:08;17.50;99.90
25214;DHT22;13160;51.834;4.706;2023-09-07T05:27:37;17.50;99.90
25214;DHT22;13160;51.834;4.706;2023-09-07T05:30:06;17.50;99.90
25214;DHT22;13160;51.834;4.706;2023-09-07T05:32:35;17.50;99.90
25214;DHT22;13160;51.834;4.706;2023-09-07T05:35:04;17.50;99.90
25214;DHT22;13160;51.834;4.706;2023-09-07T05:37:34;17.50;99.90
25214;DHT22;13160;51.834;4.706;2023-09-07T05:40:05;17.50;99.90
25214;DHT22;13160;51.834;4.706;2023-09-07T05:42:33;17.50;99.90
25214;DHT22;13160;51.834;4.706;2023-09-07T05:45:02;17.60;99.90
25214;DHT22;13160;51.834;4.706;2023-09-07T05:47:31;17.60;99.90
25214;DHT22;13160;51.834;4.706;2023-09-07T05:49:59;17.60;99.90
25214;DHT22;13160;51.834;4.706;2023-09-07T05:52:28;17.60;99.90
25214;DHT22;13160;51.834;4.706;2023-09-07T05:54:56;17.70;99.90
25214;DHT22;13160;51.834;4.706;2023-09-07T05:57:26;17.70;99.90
25214;DHT22;13160;51.834;4.706;2023-09-07T05:59:54;17.70;99.90
25214;DHT22;13160;51.834;4.706;2023-09-07T06:02:31;17.70;99.90
25214;DHT22;13160;51.834;4.706;2023-09-07T06:04:59;17.70;99.90
25214;DHT22;13160;51.834;4.706;2023-09-07T06:07:28;17.80;99.90
25214;DHT22;13160;51.834;4.706;2023-09-07T06:09:56;17.80;99.90
25214;DHT22;13160;51.834;4.706;2023-09-07T06:12:27;17.80;99.90
25214;DHT22;13160;51.834;4.706;2023-09-07T06:14:55;17.90;99.90
25214;DHT22;13160;51.834;4.706;2023-09-07T06:17:23;17.90;99.90
25214;DHT22;13160;51.834;4.706;2023-09-07T06:19:52;17.90;99.90
25214;DHT22;13160;51.834;4.706;2023-09-07T06:22:21;18.00;99.90
25214;DHT22;13160;51.834;4.706;2023-09-07T06:24:50;18.00;99.90
25214;DHT22;13160;51.834;4.706;2023-09-07T06:27:21;18.00;99.90
25214;DHT22;13160;51.834;4.706;2023-09-07T06:29:51;18.10;99.90
25214;DHT22;13160;51.834;4.706;2023-09-07T06:32:22;18.10;99.90
25214;DHT22;13160;51.834;4.706;2023-09-07T06:34:50;18.10;99.90
25214;DHT22;13160;51.834;4.706;2023-09-07T06:37:19;18.20;99.90
25214;DHT22;13160;51.834;4.706;2023-09-07T06:39:47;18.20;99.90
25214;DHT22;13160;51.834;4.706;2023-09-07T06:42:16;18.20;99.90
25214;DHT22;13160;51.834;4.706;2023-09-07T06:44:44;18.30;99.90
25214;DHT22;13160;51.834;4.706;2023-09-07T06:47:14;18.30;99.90
25214;DHT22;13160;51.834;4.706;2023-09-07T06:49:42;18.30;99.90
25214;DHT22;13160;51.834;4.706;2023-09-07T06:52:11;18.40;99.90
25214;DHT22;13160;51.834;4.706;2023-09-07T06:54:40;18.50;99.90
25214;DHT22;13160;51.834;4.706;2023-09-07T06:57:08;18.50;99.90
25214;DHT22;13160;51.834;4.706;2023-09-07T06:59:36;18.50;99.90
25214;DHT22;13160;51.834;4.706;2023-09-07T07:02:05;18.60;99.90
25214;DHT22;13160;51.834;4.706;2023-09-07T07:04:35;18.60;99.90
25214;DHT22;13160;51.834;4.706;2023-09-07T07:07:03;18.70;99.90
25214;DHT22;13160;51.834;4.706;2023-09-07T07:09:33;18.80;99.90
25214;DHT22;13160;51.834;4.706;2023-09-07T07:12:02;18.80;99.90
25214;DHT22;13160;51.834;4.706;2023-09-07T07:14:32;18.90;99.90
25214;DHT22;13160;51.834;4.706;2023-09-07T07:17:00;19.10;99.90
25214;DHT22;13160;51.834;4.706;2023-09-07T07:19:31;19.50;99.90
25214;DHT22;13160;51.834;4.706;2023-09-07T07:22:01;20.00;99.90
25214;DHT22;13160;51.834;4.706;2023-09-07T07:24:30;20.50;99.90
25214;DHT22;13160;51.834;4.706;2023-09-07T07:26:58;21.00;99.90
25214;DHT22;13160;51.834;4.706;2023-09-07T07:29:26;21.50;99.90
25214;DHT22;13160;51.834;4.706;2023-09-07T07:31:59;22.00;99.90
25214;DHT22;13160;51.834;4.706;2023-09-07T07:34:27;22.40;99.90
25214;DHT22;13160;51.834;4.706;2023-09-07T07:36:55;22.80;99.90
25214;DHT22;13160;51.834;4.706;2023-09-07T07:39:25;23.10;99.90
25214;DHT22;13160;51.834;4.706;2023-09-07T07:41:53;23.50;99.90
25214;DHT22;13160;51.834;4.706;2023-09-07T07:44:22;23.80;99.90
25214;DHT22;13160;51.834;4.706;2023-09-07T07:46:50;24.10;99.90
25214;DHT22;13160;51.834;4.706;2023-09-07T07:49:19;24.30;99.90
25214;DHT22;13160;51.834;4.706;2023-09-07T07:51:47;24.60;99.90
25214;DHT22;13160;51.834;4.706;2023-09-07T07:54:16;24.80;99.90
25214;DHT22;13160;51.834;4.706;2023-09-07T07:56:46;25.00;99.90
25214;DHT22;13160;51.834;4.706;2023-09-07T07:59:14;25.20;99.90
25214;DHT22;13160;51.834;4.706;2023-09-07T08:01:42;25.40;99.90
25214;DHT22;13160;51.834;4.706;2023-09-07T08:04:11;25.50;99.90
25214;DHT22;13160;51.834;4.706;2023-09-07T08:06:39;25.50;99.90
25214;DHT22;13160;51.834;4.706;2023-09-07T08:09:08;25.70;99.90
25214;DHT22;13160;51.834;4.706;2023-09-07T08:11:36;25.80;99.90
25214;DHT22;13160;51.834;4.706;2023-09-07T08:14:07;25.90;99.90
25214;DHT22;13160;51.834;4.706;2023-09-07T08:16:37;26.00;99.90
25214;DHT22;13160;51.834;4.706;2023-09-07T08:19:05;26.00;99.90
25214;DHT22;13160;51.834;4.706;2023-09-07T08:21:34;26.00;99.90
25214;DHT22;13160;51.834;4.706;2023-09-07T08:24:02;25.90;99.90
25214;DHT22;13160;51.834;4.706;2023-09-07T08:26:32;26.10;99.90
25214;DHT22;13160;51.834;4.706;2023-09-07T08:29:00;26.20;99.90
25214;DHT22;13160;51.834;4.706;2023-09-07T08:31:33;26.30;99.90
25214;DHT22;13160;51.834;4.706;2023-09-07T08:34:04;26.50;99.90
25214;DHT22;13160;51.834;4.706;2023-09-07T08:36:33;26.50;99.90
25214;DHT22;13160;51.834;4.706;2023-09-07T08:39:01;26.60;99.90
25214;DHT22;13160;51.834;4.706;2023-09-07T08:41:36;26.60;99.90
25214;DHT22;13160;51.834;4.706;2023-09-07T08:44:27;26.80;99.90
25214;DHT22;13160;51.834;4.706;2023-09-07T08:46:59;26.80;99.90
25214;DHT22;13160;51.834;4.706;2023-09-07T08:49:28;26.90;99.90
25214;DHT22;13160;51.834;4.706;2023-09-07T08:51:59;26.90;99.70
25214;DHT22;13160;51.834;4.706;2023-09-07T08:54:31;26.90;99.10
25214;DHT22;13160;51.834;4.706;2023-09-07T08:57:02;27.00;98.80
25214;DHT22;13160;51.834;4.706;2023-09-07T08:59:31;27.00;98.80
25214;DHT22;13160;51.834;4.706;2023-09-07T09:02:01;27.00;98.70
25214;DHT22;13160;51.834;4.706;2023-09-07T09:04:31;27.00;98.40
25214;DHT22;13160;51.834;4.706;2023-09-07T09:07:01;27.00;98.60
25214;DHT22;13160;51.834;4.706;2023-09-07T09:09:30;27.00;98.70
25214;DHT22;13160;51.834;4.706;2023-09-07T09:12:06;27.00;98.30
25214;DHT22;13160;51.834;4.706;2023-09-07T09:14:36;27.10;98.00
25214;DHT22;13160;51.834;4.706;2023-09-07T09:17:05;27.00;97.90
25214;DHT22;13160;51.834;4.706;2023-09-07T09:19:35;27.00;97.70
25214;DHT22;13160;51.834;4.706;2023-09-07T09:22:04;27.00;98.00
25214;DHT22;13160;51.834;4.706;2023-09-07T09:24:33;26.90;98.30
25214;DHT22;13160;51.834;4.706;2023-09-07T09:27:02;26.90;97.80
25214;DHT22;13160;51.834;4.706;2023-09-07T09:29:32;26.90;97.50
25214;DHT22;13160;51.834;4.706;2023-09-07T09:32:05;26.90;97.50
25214;DHT22;13160;51.834;4.706;2023-09-07T09:34:35;26.90;97.90
25214;DHT22;13160;51.834;4.706;2023-09-07T09:37:05;27.00;98.00
25214;DHT22;13160;51.834;4.706;2023-09-07T09:39:41;27.00;97.60
25214;DHT22;13160;51.834;4.706;2023-09-07T09:42:10;27.00;97.60
25214;DHT22;13160;51.834;4.706;2023-09-07T09:44:41;27.00;97.60
25214;DHT22;13160;51.834;4.706;2023-09-07T09:47:13;27.00;97.60
25214;DHT22;13160;51.834;4.706;2023-09-07T09:49:42;27.00;97.90
25214;DHT22;13160;51.834;4.706;2023-09-07T09:52:12;27.00;97.30
25214;DHT22;13160;51.834;4.706;2023-09-07T09:54:41;27.10;97.20
25214;DHT22;13160;51.834;4.706;2023-09-07T09:57:10;27.10;97.30
25214;DHT22;13160;51.834;4.706;2023-09-07T09:59:39;27.20;97.10
25214;DHT22;13160;51.834;4.706;2023-09-07T10:02:08;27.20;96.70
25214;DHT22;13160;51.834;4.706;2023-09-07T10:04:38;27.20;96.50
25214;DHT22;13160;51.834;4.706;2023-09-07T10:07:07;27.30;96.10
25214;DHT22;13160;51.834;4.706;2023-09-07T10:09:38;27.30;95.60
25214;DHT22;13160;51.834;4.706;2023-09-07T10:12:11;27.50;95.60
25214;DHT22;13160;51.834;4.706;2023-09-07T10:14:43;27.50;95.50
25214;DHT22;13160;51.834;4.706;2023-09-07T10:17:22;27.50;95.60
25214;DHT22;13160;51.834;4.706;2023-09-07T10:20:03;27.60;95.60
25214;DHT22;13160;51.834;4.706;2023-09-07T10:22:33;27.70;95.30
25214;DHT22;13160;51.834;4.706;2023-09-07T10:25:01;27.70;94.60
25214;DHT22;13160;51.834;4.706;2023-09-07T10:27:36;27.80;94.10
25214;DHT22;13160;51.834;4.706;2023-09-07T10:30:10;27.90;94.20
25214;DHT22;13160;51.834;4.706;2023-09-07T10:32:40;28.00;94.20
25214;DHT22;13160;51.834;4.706;2023-09-07T10:35:18;28.00;94.20
25214;DHT22;13160;51.834;4.706;2023-09-07T10:37:48;28.20;94.20
25214;DHT22;13160;51.834;4.706;2023-09-07T10:40:20;28.20;93.70
25214;DHT22;13160;51.834;4.706;2023-09-07T10:42:49;28.30;93.40
25214;DHT22;13160;51.834;4.706;2023-09-07T10:45:29;28.30;93.00
25214;DHT22;13160;51.834;4.706;2023-09-07T10:47:57;28.40;93.20
25214;DHT22;13160;51.834;4.706;2023-09-07T10:50:28;28.40;92.60
25214;DHT22;13160;51.834;4.706;2023-09-07T10:52:56;28.50;92.60
25214;DHT22;13160;51.834;4.706;2023-09-07T10:55:25;28.60;92.70
25214;DHT22;13160;51.834;4.706;2023-09-07T10:57:54;28.70;93.00
25214;DHT22;13160;51.834;4.706;2023-09-07T11:00:24;28.70;92.70
25214;DHT22;13160;51.834;4.706;2023-09-07T11:02:52;28.80;92.10
25214;DHT22;13160;51.834;4.706;2023-09-07T11:05:21;28.90;91.90
25214;DHT22;13160;51.834;4.706;2023-09-07T11:07:51;28.90;91.70
25214;DHT22;13160;51.834;4.706;2023-09-07T11:10:22;29.00;91.90
25214;DHT22;13160;51.834;4.706;2023-09-07T11:12:51;29.00;92.00
25214;DHT22;13160;51.834;4.706;2023-09-07T11:15:22;29.20;91.00
25214;DHT22;13160;51.834;4.706;2023-09-07T11:17:51;29.20;90.80
25214;DHT22;13160;51.834;4.706;2023-09-07T11:20:21;29.30;91.00
25214;DHT22;13160;51.834;4.706;2023-09-07T11:22:51;29.30;90.70
25214;DHT22;13160;51.834;4.706;2023-09-07T11:25:34;29.40;90.40
25214;DHT22;13160;51.834;4.706;2023-09-07T11:28:04;29.50;90.60
25214;DHT22;13160;51.834;4.706;2023-09-07T11:30:33;29.50;90.70
25214;DHT22;13160;51.834;4.706;2023-09-07T11:33:03;29.60;89.60
25214;DHT22;13160;51.834;4.706;2023-09-07T11:35:32;29.60;89.70
25214;DHT22;13160;51.834;4.706;2023-09-07T11:38:03;29.70;88.40
25214;DHT22;13160;51.834;4.706;2023-09-07T11:40:33;29.70;88.30
25214;DHT22;13160;51.834;4.706;2023-09-07T11:43:02;29.80;88.40
25214;DHT22;13160;51.834;4.706;2023-09-07T11:45:30;29.90;88.20
25214;DHT22;13160;51.834;4.706;2023-09-07T11:47:59;29.90;86.90
25214;DHT22;13160;51.834;4.706;2023-09-07T11:50:28;30.00;86.30
25214;DHT22;13160;51.834;4.706;2023-09-07T11:52:57;30.10;86.00
25214;DHT22;13160;51.834;4.706;2023-09-07T11:55:27;30.20;85.30
25214;DHT22;13160;51.834;4.706;2023-09-07T11:57:57;30.20;84.50
25214;DHT22;13160;51.834;4.706;2023-09-07T12:00:25;30.20;84.10
25214;DHT22;13160;51.834;4.706;2023-09-07T12:02:54;30.20;83.20
25214;DHT22;13160;51.834;4.706;2023-09-07T12:05:22;30.30;82.60
25214;DHT22;13160;51.834;4.706;2023-09-07T12:07:54;30.40;82.30
25214;DHT22;13160;51.834;4.706;2023-09-07T12:10:23;30.40;82.40
25214;DHT22;13160;51.834;4.706;2023-09-07T12:12:55;30.40;82.90
25214;DHT22;13160;51.834;4.706;2023-09-07T12:15:23;30.50;82.40
25214;DHT22;13160;51.834;4.706;2023-09-07T12:17:52;30.50;82.40
25214;DHT22;13160;51.834;4.706;2023-09-07T12:20:21;30.60;82.00
25214;DHT22;13160;51.834;4.706;2023-09-07T12:22:50;30.60;80.70
25214;DHT22;13160;51.834;4.706;2023-09-07T12:25:20;30.60;79.80
25214;DHT22;13160;51.834;4.706;2023-09-07T12:27:48;30.70;78.80
25214;DHT22;13160;51.834;4.706;2023-09-07T12:30:22;30.70;78.30
25214;DHT22;13160;51.834;4.706;2023-09-07T12:32:51;30.70;78.60
25214;DHT22;13160;51.834;4.706;2023-09-07T12:35:20;30.80;78.40
25214;DHT22;13160;51.834;4.706;2023-09-07T12:37:49;30.80;77.80
25214;DHT22;13160;51.834;4.706;2023-09-07T12:40:17;30.80;77.90
25214;DHT22;13160;51.834;4.706;2023-09-07T12:42:48;30.80;77.80
25214;DHT22;13160;51.834;4.706;2023-09-07T12:45:16;30.80;77.20
25214;DHT22;13160;51.834;4.706;2023-09-07T12:47:46;30.80;77.10
25214;DHT22;13160;51.834;4.706;2023-09-07T12:50:14;30.80;76.60
25214;DHT22;13160;51.834;4.706;2023-09-07T12:52:43;30.80;77.10
25214;DHT22;13160;51.834;4.706;2023-09-07T12:55:11;30.80;76.80
25214;DHT22;13160;51.834;4.706;2023-09-07T12:57:39;30.90;75.90
25214;DHT22;13160;51.834;4.706;2023-09-07T13:00:10;30.90;75.60
25214;DHT22;13160;51.834;4.706;2023-09-07T13:02:40;30.90;74.60
25214;DHT22;13160;51.834;4.706;2023-09-07T13:05:10;30.90;75.10
25214;DHT22;13160;51.834;4.706;2023-09-07T13:07:38;30.90;74.60
25214;DHT22;13160;51.834;4.706;2023-09-07T13:10:08;31.00;74.60
25214;DHT22;13160;51.834;4.706;2023-09-07T13:12:37;31.00;74.10
25214;DHT22;13160;51.834;4.706;2023-09-07T13:15:07;31.00;74.00
25214;DHT22;13160;51.834;4.706;2023-09-07T13:17:41;31.10;74.10
25214;DHT22;13160;51.834;4.706;2023-09-07T13:20:11;31.10;73.90
25214;DHT22;13160;51.834;4.706;2023-09-07T13:22:40;31.00;73.20
25214;DHT22;13160;51.834;4.706;2023-09-07T13:25:09;31.00;73.30
25214;DHT22;13160;51.834;4.706;2023-09-07T13:27:38;31.00;72.90
25214;DHT22;13160;51.834;4.706;2023-09-07T13:30:07;31.00;73.30
25214;DHT22;13160;51.834;4.706;2023-09-07T13:32:35;31.10;73.00
25214;DHT22;13160;51.834;4.706;2023-09-07T13:35:04;31.10;73.70
25214;DHT22;13160;51.834;4.706;2023-09-07T13:37:34;31.10;73.00
25214;DHT22;13160;51.834;4.706;2023-09-07T13:40:04;31.10;73.30
25214;DHT22;13160;51.834;4.706;2023-09-07T13:42:34;31.10;72.50
25214;DHT22;13160;51.834;4.706;2023-09-07T13:45:03;31.10;72.00
25214;DHT22;13160;51.834;4.706;2023-09-07T13:47:32;31.10;72.00
25214;DHT22;13160;51.834;4.706;2023-09-07T13:50:00;31.10;72.00
25214;DHT22;13160;51.834;4.706;2023-09-07T13:52:29;31.00;71.90
25214;DHT22;13160;51.834;4.706;2023-09-07T13:54:59;31.10;72.80
25214;DHT22;13160;51.834;4.706;2023-09-07T13:57:27;31.10;73.40
25214;DHT22;13160;51.834;4.706;2023-09-07T13:59:56;31.10;72.90
25214;DHT22;13160;51.834;4.706;2023-09-07T14:02:24;31.00;71.50
25214;DHT22;13160;51.834;4.706;2023-09-07T14:04:52;31.00;71.50
25214;DHT22;13160;51.834;4.706;2023-09-07T14:07:21;30.90;70.90
25214;DHT22;13160;51.834;4.706;2023-09-07T14:09:53;30.90;70.90
25214;DHT22;13160;51.834;4.706;2023-09-07T14:12:23;30.80;70.80
25214;DHT22;13160;51.834;4.706;2023-09-07T14:14:52;30.80;71.40
25214;DHT22;13160;51.834;4.706;2023-09-07T14:17:23;30.80;71.50
25214;DHT22;13160;51.834;4.706;2023-09-07T14:19:51;30.70;72.00
25214;DHT22;13160;51.834;4.706;2023-09-07T14:22:20;30.70;72.50
25214;DHT22;13160;51.834;4.706;2023-09-07T14:24:48;30.70;71.80
25214;DHT22;13160;51.834;4.706;2023-09-07T14:27:17;30.60;71.70
25214;DHT22;13160;51.834;4.706;2023-09-07T14:29:47;30.60;71.70
25214;DHT22;13160;51.834;4.706;2023-09-07T14:32:15;30.50;71.40
25214;DHT22;13160;51.834;4.706;2023-09-07T14:34:44;30.50;71.30
25214;DHT22;13160;51.834;4.706;2023-09-07T14:37:12;30.40;71.70
25214;DHT22;13160;51.834;4.706;2023-09-07T14:39:40;30.40;72.50
25214;DHT22;13160;51.834;4.706;2023-09-07T14:42:18;30.40;73.90
25214;DHT22;13160;51.834;4.706;2023-09-07T14:44:48;30.40;73.00
25214;DHT22;13160;51.834;4.706;2023-09-07T14:47:17;30.30;73.20
25214;DHT22;13160;51.834;4.706;2023-09-07T14:49:52;30.30;73.30
25214;DHT22;13160;51.834;4.706;2023-09-07T14:52:23;30.20;73.50
25214;DHT22;13160;51.834;4.706;2023-09-07T14:54:52;30.20;73.50
25214;DHT22;13160;51.834;4.706;2023-09-07T14:57:21;30.20;73.90
25214;DHT22;13160;51.834;4.706;2023-09-07T14:59:51;30.10;74.20
25214;DHT22;13160;51.834;4.706;2023-09-07T15:02:19;30.10;74.10
25214;DHT22;13160;51.834;4.706;2023-09-07T15:04:48;30.00;74.10
25214;DHT22;13160;51.834;4.706;2023-09-07T15:07:16;30.00;74.30
25214;DHT22;13160;51.834;4.706;2023-09-07T15:09:45;30.00;74.50
25214;DHT22;13160;51.834;4.706;2023-09-07T15:12:13;29.90;74.30
25214;DHT22;13160;51.834;4.706;2023-09-07T15:14:42;29.90;75.00
25214;DHT22;13160;51.834;4.706;2023-09-07T15:17:12;29.90;75.30
25214;DHT22;13160;51.834;4.706;2023-09-07T15:19:42;29.80;75.60
25214;DHT22;13160;51.834;4.706;2023-09-07T15:22:10;29.80;75.80
25214;DHT22;13160;51.834;4.706;2023-09-07T15:24:39;29.80;75.80
25214;DHT22;13160;51.834;4.706;2023-09-07T15:27:12;29.70;76.30
25214;DHT22;13160;51.834;4.706;2023-09-07T15:29:40;29.70;76.60
25214;DHT22;13160;51.834;4.706;2023-09-07T15:32:09;29.70;76.70
25214;DHT22;13160;51.834;4.706;2023-09-07T15:34:39;29.70;76.90
25214;DHT22;13160;51.834;4.706;2023-09-07T15:37:07;29.60;77.50
25214;DHT22;13160;51.834;4.706;2023-09-07T15:39:37;29.60;77.50
25214;DHT22;13160;51.834;4.706;2023-09-07T15:42:05;29.60;77.90
25214;DHT22;13160;51.834;4.706;2023-09-07T15:44:34;29.50;78.20